Time;durP1;ratioP1;P1;durP2;ratioP2;P2;SDS_P1;SDS_P2;PMS_P1;PMS_P2;Temp;Humidity;BMP_temperature;BMP_pressure;BME280_temperature;BME280_humidity;BME280_pressure;Samples;Min_cycle;Max_cycle;Signal;HPM_P1;HPM_P2
2023/07/18 00:02:07;;;;;;;4.68;1.73;;;;;;;14.14;86.76;102132.84;6162089;23;20024;-77
2023/07/18 00:04:34;;;;;;;5.28;1.55;;;;;;;14.12;87.19;102131.78;6188201;23;20092;-77
2023/07/18 00:07:01;;;;;;;4.28;1.60;;;;;;;14.11;87.36;102130.28;6188796;23;20419;-77
2023/07/18 00:09:27;;;;;;;7.28;1.67;;;;;;;14.08;87.24;102134.56;6187911;23;20089;-77
2023/07/18 00:11:54;;;;;;;4.95;1.80;;;;;;;14.03;87.40;102129.75;6188824;23;20024;-77
2023/07/18 00:14:22;;;;;;;5.07;1.77;;;;;;;14.02;87.83;102133.59;6187537;23;20466;-76
2023/07/18 00:16:49;;;;;;;7.75;1.55;;;;;;;14.00;87.75;102131.34;6162044;23;20403;-77
2023/07/18 00:19:16;;;;;;;9.93;1.90;;;;;;;13.98;87.70;102122.28;6188628;23;20039;-78
2023/07/18 00:21:42;;;;;;;5.88;1.45;;;;;;;13.97;88.21;102132.25;6161977;23;20014;-78
2023/07/18 00:24:09;;;;;;;3.85;1.45;;;;;;;13.94;88.57;102119.72;6188861;23;20361;-77
2023/07/18 00:26:36;;;;;;;5.40;1.70;;;;;;;13.92;88.53;102114.03;6188063;23;20092;-77
2023/07/18 00:29:03;;;;;;;3.50;1.52;;;;;;;13.95;88.56;102120.47;6187888;23;20097;-77
2023/07/18 00:31:31;;;;;;;4.32;1.65;;;;;;;13.94;88.69;102116.28;6161710;23;20029;-77
2023/07/18 00:33:59;;;;;;;3.13;1.63;;;;;;;13.91;88.96;102111.78;6162352;23;20022;-77
2023/07/18 00:36:25;;;;;;;3.45;1.65;;;;;;;13.91;89.17;102117.88;6162618;23;20139;-77
2023/07/18 00:38:52;;;;;;;5.30;1.65;;;;;;;13.89;89.25;102111.47;6163628;23;20480;-77
2023/07/18 00:41:19;;;;;;;5.72;1.60;;;;;;;13.86;89.40;102109.63;6189487;23;20447;-77
2023/07/18 00:43:46;;;;;;;5.47;1.60;;;;;;;13.83;89.71;102108.56;6138457;23;20053;-77
2023/07/18 00:46:14;;;;;;;4.57;1.42;;;;;;;13.83;89.55;102113.91;6163243;23;20021;-77
2023/07/18 00:48:41;;;;;;;7.05;1.75;;;;;;;13.81;89.67;102113.59;6163039;23;20022;-77
2023/07/18 00:51:07;;;;;;;4.82;1.85;;;;;;;13.83;89.36;102115.84;6163370;23;20028;-77
2023/07/18 00:53:37;;;;;;;8.00;1.55;;;;;;;13.82;89.59;102119.69;6162906;23;20025;-77
2023/07/18 00:56:04;;;;;;;4.80;1.65;;;;;;;13.79;89.38;102113.28;6190155;23;20021;-78
2023/07/18 00:58:31;;;;;;;2.72;1.45;;;;;;;13.78;89.61;102116.38;6188919;23;20436;-77
2023/07/18 01:01:00;;;;;;;5.70;1.73;;;;;;;13.74;89.84;102118.41;6190291;23;20014;-77
2023/07/18 01:03:31;;;;;;;2.72;1.70;;;;;;;13.69;90.18;102120.44;6189405;23;20455;-77
2023/07/18 01:05:58;;;;;;;3.72;1.60;;;;;;;13.68;90.32;102115.50;6190175;23;20077;-77
2023/07/18 01:08:24;;;;;;;4.65;1.77;;;;;;;13.67;90.40;102108.66;6162825;23;20452;-78
2023/07/18 01:10:51;;;;;;;2.15;1.25;;;;;;;13.65;90.26;102117.13;6163586;23;20092;-77
2023/07/18 01:13:18;;;;;;;3.15;1.83;;;;;;;13.64;90.70;102115.63;6188736;23;20017;-78
2023/07/18 01:15:46;;;;;;;5.15;1.67;;;;;;;13.62;89.70;102109.94;6189889;23;20024;-77
2023/07/18 01:18:13;;;;;;;3.00;1.30;;;;;;;13.58;89.94;102112.00;6189956;23;20020;-77
2023/07/18 01:20:40;;;;;;;4.00;1.67;;;;;;;13.57;90.76;102115.84;6189483;23;20021;-77
2023/07/18 01:23:07;;;;;;;3.15;1.55;;;;;;;13.55;91.19;102120.13;6163211;23;20038;-78
2023/07/18 01:25:34;;;;;;;3.40;1.30;;;;;;;13.54;91.06;102122.03;6189192;23;20045;-77
2023/07/18 01:28:01;;;;;;;4.53;1.65;;;;;;;13.53;91.22;102119.78;6157420;23;20014;-77
2023/07/18 01:30:30;;;;;;;7.40;1.75;;;;;;;13.51;91.13;102116.78;6157547;23;20026;-77
2023/07/18 01:32:57;;;;;;;2.80;1.60;;;;;;;13.47;91.12;102119.56;6158162;23;20057;-77
2023/07/18 01:35:26;;;;;;;6.93;1.95;;;;;;;13.47;91.22;102119.56;6159539;23;20028;-77
2023/07/18 01:37:55;;;;;;;2.10;1.60;;;;;;;13.45;91.72;102124.59;6160065;23;20133;-77
2023/07/18 01:40:22;;;;;;;8.80;1.80;;;;;;;13.43;91.41;102118.91;6157120;23;20085;-78
2023/07/18 01:42:51;;;;;;;2.85;1.52;;;;;;;13.42;91.67;102114.75;6159083;23;20484;-78
2023/07/18 01:45:19;;;;;;;1.52;1.40;;;;;;;13.42;91.63;102112.06;6157542;23;20439;-76
2023/07/18 01:47:47;;;;;;;3.10;1.67;;;;;;;13.41;92.01;102099.88;6159790;23;20018;-77
2023/07/18 01:50:14;;;;;;;2.55;1.58;;;;;;;13.39;91.48;102099.53;6158338;23;20512;-77
2023/07/18 01:52:41;;;;;;;5.18;1.70;;;;;;;13.39;92.42;102099.53;6158051;23;20097;-77
2023/07/18 01:55:08;;;;;;;2.75;1.40;;;;;;;13.38;92.56;102097.28;6158127;23;20453;-77
2023/07/18 01:57:38;;;;;;;5.60;1.67;;;;;;;13.38;92.22;102099.97;6158692;23;20341;-77
2023/07/18 02:00:12;;;;;;;3.15;1.50;;;;;;;13.34;92.46;102098.13;6133636;23;20108;-77
2023/07/18 02:02:42;;;;;;;3.78;1.58;;;;;;;13.32;92.82;102100.50;6159644;23;20073;-77
2023/07/18 02:05:12;;;;;;;3.58;1.42;;;;;;;13.30;92.67;102099.41;6158168;23;20028;-78
2023/07/18 02:07:39;;;;;;;4.70;1.70;;;;;;;13.27;92.53;102094.91;6157352;23;20018;-76
2023/07/18 02:10:06;;;;;;;2.85;1.35;;;;;;;13.23;91.75;102091.59;6133745;23;20053;-76
2023/07/18 02:12:33;;;;;;;1.63;1.52;;;;;;;13.23;92.48;102088.91;6157169;23;20026;-77
2023/07/18 02:15:01;;;;;;;3.45;1.83;;;;;;;13.23;92.28;102083.56;6158494;23;20053;-76
2023/07/18 02:17:28;;;;;;;7.15;1.88;;;;;;;13.21;92.43;102085.91;6157290;23;20028;-78
2023/07/18 02:19:54;;;;;;;8.30;2.33;;;;;;;13.21;92.57;102086.66;6158128;23;20022;-78
2023/07/18 02:22:21;;;;;;;9.02;2.28;;;;;;;13.19;92.88;102082.94;6159108;23;20017;-77
2023/07/18 02:24:48;;;;;;;2.65;1.60;;;;;;;13.17;93.15;102082.59;6159816;23;20022;-78
2023/07/18 02:27:15;;;;;;;4.57;2.00;;;;;;;13.13;92.36;102080.00;6156760;23;20054;-77
2023/07/18 02:29:41;;;;;;;3.97;2.17;;;;;;;13.13;92.83;102082.69;6159372;23;20018;-77
2023/07/18 02:32:08;;;;;;;4.03;2.00;;;;;;;13.10;92.56;102080.09;6157797;23;20022;-77
2023/07/18 02:34:38;;;;;;;6.18;2.00;;;;;;;13.08;92.64;102085.13;6157071;23;20064;-77
2023/07/18 02:37:05;;;;;;;2.67;1.80;;;;;;;13.08;92.52;102087.78;6159778;23;20014;-77
2023/07/18 02:39:34;;;;;;;4.57;1.98;;;;;;;13.04;93.01;102085.22;6158392;23;20025;-77
2023/07/18 02:42:01;;;;;;;1.83;1.60;;;;;;;13.01;93.23;102084.13;6159799;23;20092;-77
2023/07/18 02:44:27;;;;;;;2.35;1.70;;;;;;;12.97;92.95;102080.81;6159032;23;20085;-77
2023/07/18 02:46:54;;;;;;;4.20;1.83;;;;;;;12.99;93.90;102083.06;6159743;23;20352;-77
2023/07/18 02:49:21;;;;;;;4.20;2.03;;;;;;;12.98;93.24;102078.88;6159104;23;20069;-77
2023/07/18 02:51:47;;;;;;;7.13;1.75;;;;;;;12.98;92.69;102073.53;6157801;23;20084;-77
2023/07/18 02:54:14;;;;;;;6.13;1.85;;;;;;;12.97;92.90;102067.44;6158740;23;20026;-77
2023/07/18 02:56:41;;;;;;;4.20;2.30;;;;;;;12.97;92.54;102067.44;6157299;23;20018;-77
2023/07/18 02:59:07;;;;;;;4.20;2.10;;;;;;;12.95;92.52;102069.78;6158745;23;20065;-77
2023/07/18 03:01:34;;;;;;;4.97;2.15;;;;;;;12.93;93.77;102074.81;6157008;23;20497;-77
2023/07/18 03:04:01;;;;;;;2.85;2.00;;;;;;;12.91;93.61;102077.16;6159926;23;20018;-77
2023/07/18 03:06:28;;;;;;;5.07;2.20;;;;;;;12.87;93.38;102071.16;6132730;23;20022;-77
2023/07/18 03:08:55;;;;;;;5.15;2.40;;;;;;;12.85;93.05;102078.84;6157450;23;20018;-77
2023/07/18 03:11:22;;;;;;;4.20;2.17;;;;;;;12.81;93.12;102080.84;6157028;23;20415;-77
2023/07/18 03:13:49;;;;;;;10.00;2.40;;;;;;;12.80;93.46;102083.94;6157990;23;20030;-77
2023/07/18 03:16:16;;;;;;;3.47;2.00;;;;;;;12.79;94.15;102085.88;6159398;23;20021;-77
2023/07/18 03:18:42;;;;;;;3.55;2.00;;;;;;;12.78;93.20;102081.72;6157893;23;20104;-77
2023/07/18 03:21:11;;;;;;;4.93;2.00;;;;;;;12.75;93.65;102087.91;6159532;23;20025;-78
2023/07/18 03:23:38;;;;;;;4.65;2.45;;;;;;;12.73;93.78;102090.25;6158538;23;20283;-77
2023/07/18 03:26:04;;;;;;;3.63;2.20;;;;;;;12.71;93.98;102089.16;6158126;23;20025;-78
2023/07/18 03:28:31;;;;;;;4.72;2.25;;;;;;;12.69;93.52;102086.91;6156937;23;20050;-77
2023/07/18 03:30:58;;;;;;;4.32;2.03;;;;;;;12.66;94.12;102085.81;6158051;23;20408;-77
2023/07/18 03:33:25;;;;;;;3.05;1.90;;;;;;;12.65;93.47;102091.59;6156851;23;20495;-77
2023/07/18 03:35:53;;;;;;;2.80;1.80;;;;;;;12.61;94.03;102091.69;6157530;23;20523;-77
2023/07/18 03:38:20;;;;;;;3.58;1.98;;;;;;;12.60;94.37;102087.50;6156763;23;20022;-77
2023/07/18 03:40:47;;;;;;;3.38;1.95;;;;;;;12.59;93.70;102094.03;6159470;23;20014;-77
2023/07/18 03:43:13;;;;;;;2.03;1.90;;;;;;;12.59;94.05;102093.28;6157631;23;20828;-77
2023/07/18 03:45:40;;;;;;;4.72;1.50;;;;;;;12.60;94.17;102090.19;6157499;23;20025;-77
2023/07/18 03:48:07;;;;;;;3.47;2.17;;;;;;;12.61;94.52;102093.59;6159074;23;20472;-77
2023/07/18 03:50:33;;;;;;;3.65;2.08;;;;;;;12.60;94.17;102092.09;6158469;23;20097;-77
2023/07/18 03:53:00;;;;;;;3.45;2.58;;;;;;;12.59;94.04;102098.59;6158911;23;20516;-77
2023/07/18 03:55:27;;;;;;;3.33;2.42;;;;;;;12.60;94.19;102092.09;6158594;23;20018;-77
2023/07/18 03:57:53;;;;;;;3.55;2.05;;;;;;;12.60;94.69;102090.19;6159394;23;20021;-77
2023/07/18 04:00:20;;;;;;;2.40;2.20;;;;;;;12.58;94.56;102084.50;6156931;23;20017;-77
2023/07/18 04:02:48;;;;;;;3.00;2.38;;;;;;;12.59;94.57;102090.59;6157474;23;20026;-77
2023/07/18 04:05:17;;;;;;;5.63;2.35;;;;;;;12.58;94.96;102084.50;6157065;23;20059;-78
2023/07/18 04:07:45;;;;;;;4.60;2.30;;;;;;;12.59;94.80;102082.59;6158715;23;20089;-76
2023/07/18 04:10:12;;;;;;;3.50;2.40;;;;;;;12.62;94.65;102087.09;6158367;23;20089;-77
2023/07/18 04:12:40;;;;;;;4.28;2.10;;;;;;;12.64;94.93;102084.75;6159432;23;20046;-77
2023/07/18 04:15:07;;;;;;;4.35;2.13;;;;;;;12.61;94.16;102075.66;6160443;23;20101;-77
2023/07/18 04:17:34;;;;;;;3.33;2.15;;;;;;;12.63;93.70;102080.56;6159895;23;20108;-77
2023/07/18 04:20:00;;;;;;;3.92;2.13;;;;;;;12.62;93.21;102079.81;6160632;23;20045;-77
2023/07/18 04:22:29;;;;;;;6.82;2.15;;;;;;;12.64;93.51;102071.38;6159132;23;20112;-77
2023/07/18 04:24:56;;;;;;;6.60;2.55;;;;;;;12.65;93.68;102065.63;6158597;23;20160;-77
2023/07/18 04:27:23;;;;;;;4.07;2.45;;;;;;;12.67;94.08;102062.53;6166789;23;20018;-77
2023/07/18 04:29:49;;;;;;;5.90;2.20;;;;;;;12.70;93.90;102064.38;6190169;23;20041;-77
2023/07/18 04:32:19;;;;;;;3.05;2.35;;;;;;;12.73;93.62;102073.47;6189724;23;20509;-77
2023/07/18 04:34:49;;;;;;;4.85;2.55;;;;;;;12.73;93.22;102071.53;6189990;23;20045;-77
2023/07/18 04:37:16;;;;;;;4.57;2.55;;;;;;;12.76;93.35;102072.63;6189109;23;20021;-77
2023/07/18 04:39:43;;;;;;;3.85;2.40;;;;;;;12.78;93.86;102071.03;6163590;23;20093;-77
2023/07/18 04:42:10;;;;;;;5.75;2.72;;;;;;;12.81;93.66;102067.47;6189981;23;20088;-76
2023/07/18 04:44:37;;;;;;;4.30;2.28;;;;;;;12.89;93.38;102073.41;6189329;23;20014;-77
2023/07/18 04:47:04;;;;;;;5.13;2.50;;;;;;;12.97;93.44;102064.78;6190186;23;20014;-77
2023/07/18 04:49:31;;;;;;;3.25;2.20;;;;;;;13.21;92.97;102073.28;6189374;23;20020;-77
2023/07/18 04:51:58;;;;;;;3.90;2.05;;;;;;;13.27;92.39;102065.50;6189427;23;20017;-77
2023/07/18 04:54:25;;;;;;;2.65;2.45;;;;;;;13.37;91.73;102069.03;6189454;23;20024;-77
2023/07/18 04:56:53;;;;;;;4.88;2.85;;;;;;;13.58;91.45;102069.19;6190089;23;20020;-77
2023/07/18 04:59:21;;;;;;;7.93;2.67;;;;;;;14.26;89.49;102077.78;6189142;23;20021;-77
2023/07/18 05:01:54;;;;;;;3.65;2.58;;;;;;;15.22;86.11;102069.09;6189676;23;20394;-77
2023/07/18 05:04:21;;;;;;;4.13;2.28;;;;;;;15.97;81.28;102070.47;6189262;23;20092;-78
2023/07/18 05:06:48;;;;;;;6.82;2.63;;;;;;;16.75;77.01;102074.56;6189989;23;20455;-78
2023/07/18 05:09:16;;;;;;;3.70;2.00;;;;;;;18.02;71.96;102069.16;6189308;23;20013;-78
2023/07/18 05:11:43;;;;;;;3.55;2.30;;;;;;;19.03;66.35;102058.31;6189233;23;20671;-78
2023/07/18 05:14:10;;;;;;;7.07;2.55;;;;;;;19.25;64.67;102064.03;6163492;23;20045;-78
2023/07/18 05:16:36;;;;;;;4.75;2.35;;;;;;;20.23;61.16;102069.78;6189197;23;20018;-78
2023/07/18 05:19:03;;;;;;;8.15;2.78;;;;;;;19.98;60.72;102061.16;6189265;23;20018;-78
2023/07/18 05:21:30;;;;;;;7.68;2.83;;;;;;;19.58;61.69;102069.22;6188399;23;20041;-77
2023/07/18 05:23:56;;;;;;;9.10;2.88;;;;;;;21.18;58.08;102054.44;6190041;23;20436;-78
2023/07/18 05:26:23;;;;;;;7.60;2.55;;;;;;;22.49;53.77;102064.16;6188897;23;20474;-78
2023/07/18 05:28:52;;;;;;;4.75;2.58;;;;;;;23.23;50.49;102064.44;6157795;23;20479;-82
2023/07/18 05:31:18;;;;;;;4.20;2.10;;;;;;;24.05;49.12;102066.66;6157172;23;20019;-78
2023/07/18 05:33:46;;;;;;;7.25;2.50;;;;;;;24.60;47.93;102065.63;6159623;23;20029;-77
2023/07/18 05:36:13;;;;;;;4.05;2.63;;;;;;;24.68;45.91;102070.53;6160310;23;20018;-77
2023/07/18 05:38:40;;;;;;;5.00;2.42;;;;;;;25.11;45.52;102065.22;6159744;23;20479;-76
2023/07/18 05:41:06;;;;;;;5.10;2.20;;;;;;;25.12;46.14;102059.28;6160330;23;20022;-76
2023/07/18 05:43:33;;;;;;;4.22;2.72;;;;;;;24.69;45.36;102069.28;6159464;23;20089;-76
2023/07/18 05:45:59;;;;;;;6.85;2.80;;;;;;;24.30;46.64;102067.56;6160156;23;20061;-75
2023/07/18 05:48:27;;;;;;;4.07;2.80;;;;;;;23.32;48.04;102068.13;6158561;23;20018;-80
2023/07/18 05:50:55;;;;;;;6.05;2.75;;;;;;;22.54;50.27;102061.47;6158360;23;20866;-80
2023/07/18 05:53:22;;;;;;;6.93;2.60;;;;;;;22.33;51.72;102062.19;6159169;23;20020;-80
2023/07/18 05:55:50;;;;;;;5.18;2.63;;;;;;;22.36;50.99;102066.63;6159999;23;20093;-80
2023/07/18 05:58:17;;;;;;;6.03;2.97;;;;;;;22.39;51.07;102062.94;6159669;23;20018;-79
2023/07/18 06:00:44;;;;;;;6.60;3.00;;;;;;;21.80;52.99;102061.72;6158341;23;20058;-75
2023/07/18 06:03:10;;;;;;;5.45;2.55;;;;;;;21.30;54.71;102062.19;6159293;23;20020;-78
2023/07/18 06:05:37;;;;;;;4.20;2.40;;;;;;;21.72;54.64;102071.53;6159429;23;20511;-76
2023/07/18 06:08:04;;;;;;;7.38;2.78;;;;;;;21.85;53.45;102060.25;6159994;23;20018;-76
2023/07/18 06:10:31;;;;;;;7.38;2.58;;;;;;;22.14;53.05;102068.03;6159034;23;20018;-75
2023/07/18 06:12:58;;;;;;;5.47;3.08;;;;;;;22.22;53.88;102073.72;6159859;23;20440;-75
2023/07/18 06:15:25;;;;;;;5.85;2.85;;;;;;;21.96;53.92;102073.88;6158508;23;20028;-74
2023/07/18 06:17:52;;;;;;;5.63;2.55;;;;;;;21.50;55.02;102079.56;6159007;23;20081;-76
2023/07/18 06:20:20;;;;;;;7.80;2.83;;;;;;;21.26;56.32;102079.88;6159173;23;20514;-77
2023/07/18 06:22:47;;;;;;;11.85;2.75;;;;;;;20.94;56.90;102074.44;6159602;23;20069;-75
2023/07/18 06:25:15;;;;;;;8.45;2.60;;;;;;;21.02;57.56;102079.44;6159678;23;20336;-75
2023/07/18 06:27:42;;;;;;;10.40;2.80;;;;;;;20.96;57.89;102080.13;6157288;23;20119;-76
2023/07/18 06:30:09;;;;;;;6.97;2.58;;;;;;;20.85;58.37;102076.56;6159902;23;20021;-75
2023/07/18 06:32:35;;;;;;;5.68;2.40;;;;;;;20.91;58.70;102075.41;6158186;23;20085;-76
2023/07/18 06:35:03;;;;;;;4.13;2.42;;;;;;;20.86;58.38;102083.47;6159835;23;20438;-75
2023/07/18 06:37:48;;;;;;;4.60;2.50;;;;;;;20.91;58.84;102080.06;6159907;23;20459;-76
2023/07/18 06:40:15;;;;;;;5.75;2.92;;;;;;;20.96;58.83;102076.66;6157773;23;20435;-76
2023/07/18 06:42:42;;;;;;;9.20;2.85;;;;;;;20.84;58.59;102070.41;6159450;23;20520;-76
2023/07/18 06:45:09;;;;;;;9.15;2.75;;;;;;;20.72;59.45;102071.56;6159900;23;20030;-76
2023/07/18 06:47:35;;;;;;;9.00;2.75;;;;;;;20.52;59.67;102069.63;6157912;23;20025;-76
2023/07/18 06:50:02;;;;;;;5.82;2.70;;;;;;;20.76;59.79;102057.81;6159709;23;20014;-77
2023/07/18 06:52:28;;;;;;;9.10;3.08;;;;;;;20.75;60.05;102067.16;6158726;23;20021;-76
2023/07/18 06:54:55;;;;;;;8.63;2.65;;;;;;;20.73;60.37;102069.59;6157793;23;20025;-76
2023/07/18 06:57:21;;;;;;;4.63;2.45;;;;;;;20.66;60.86;102073.47;6158773;23;20014;-76
2023/07/18 06:59:48;;;;;;;5.97;2.70;;;;;;;20.81;61.10;102070.63;6159594;23;20022;-75
2023/07/18 07:02:14;;;;;;;8.75;3.00;;;;;;;20.89;61.47;102067.00;6156933;23;20025;-75
2023/07/18 07:04:41;;;;;;;6.43;2.95;;;;;;;20.95;60.90;102070.50;6159329;23;20054;-74
2023/07/18 07:07:08;;;;;;;5.00;2.75;;;;;;;21.06;61.91;102064.44;6159622;23;20057;-76
2023/07/18 07:09:34;;;;;;;8.30;2.92;;;;;;;21.24;61.59;102072.22;6158702;23;20018;-79
2023/07/18 07:12:01;;;;;;;7.97;3.00;;;;;;;21.30;60.84;102069.56;6159415;23;20539;-77
2023/07/18 07:14:28;;;;;;;8.27;2.90;;;;;;;21.11;60.98;102071.13;6158521;23;20426;-79
2023/07/18 07:16:56;;;;;;;8.48;2.90;;;;;;;20.94;61.50;102074.44;6158920;23;20463;-81
2023/07/18 07:19:23;;;;;;;7.07;2.90;;;;;;;21.07;61.09;102074.06;6156713;23;20578;-78
2023/07/18 07:21:49;;;;;;;9.23;2.40;;;;;;;21.26;61.68;102069.03;6157753;23;20018;-78
2023/07/18 07:24:16;;;;;;;11.23;3.30;;;;;;;21.33;61.29;102067.84;6157383;23;20165;-78
2023/07/18 07:26:43;;;;;;;9.73;3.53;;;;;;;21.36;60.87;102056.81;6156740;23;20487;-79
2023/07/18 07:29:10;;;;;;;7.35;3.45;;;;;;;21.28;61.79;102058.47;6157371;23;20018;-79
2023/07/18 07:31:37;;;;;;;6.28;2.88;;;;;;;21.37;61.21;102058.28;6156410;23;20020;-76
2023/07/18 07:34:04;;;;;;;6.18;2.58;;;;;;;21.48;61.08;102058.34;6159319;23;20021;-76
2023/07/18 07:36:32;;;;;;;9.23;2.78;;;;;;;21.53;60.95;102057.66;6158678;23;20093;-76
2023/07/18 07:38:59;;;;;;;7.50;3.08;;;;;;;21.82;60.91;102061.22;6159338;23;20045;-76
2023/07/18 07:41:26;;;;;;;10.50;3.10;;;;;;;21.81;60.43;102052.34;6157214;23;20018;-77
2023/07/18 07:43:52;;;;;;;12.75;3.65;;;;;;;21.80;60.51;102050.13;6158319;23;20444;-81
2023/07/18 07:46:19;;;;;;;7.10;2.95;;;;;;;21.84;60.64;102045.97;6157071;23;20024;-80
2023/07/18 07:48:45;;;;;;;7.03;2.53;;;;;;;22.02;59.56;102047.53;6158800;23;20018;-79
2023/07/18 07:51:16;;;;;;;10.52;2.60;;;;;;;22.11;58.85;102047.31;6158979;23;20097;-79
2023/07/18 07:53:43;;;;;;;10.50;2.70;;;;;;;22.27;59.35;102051.31;6157077;23;20037;-79
2023/07/18 07:56:10;;;;;;;6.45;2.45;;;;;;;22.39;58.07;102050.09;6158609;23;20018;-79
2023/07/18 07:58:37;;;;;;;7.68;2.30;;;;;;;22.52;56.55;102039.50;6155851;23;20029;-80
2023/07/18 08:01:03;;;;;;;6.15;2.25;;;;;;;22.37;56.99;102040.97;6157002;23;20022;-79
2023/07/18 08:03:30;;;;;;;5.03;2.20;;;;;;;22.36;56.59;102034.06;6158098;23;20014;-78
2023/07/18 08:05:58;;;;;;;4.05;1.80;;;;;;;22.48;56.76;102027.41;6158130;23;20014;-77
2023/07/18 08:08:25;;;;;;;6.25;2.00;;;;;;;22.51;55.61;102029.88;6155937;23;20022;-78
2023/07/18 08:10:52;;;;;;;6.78;2.00;;;;;;;22.82;56.69;102031.63;6158481;23;20452;-78
2023/07/18 08:13:19;;;;;;;5.82;2.67;;;;;;;22.82;56.07;102031.63;6157183;23;20033;-80
2023/07/18 08:15:45;;;;;;;3.97;2.15;;;;;;;22.87;56.05;102025.47;6157942;23;20026;-79
2023/07/18 08:18:12;;;;;;;3.88;1.88;;;;;;;22.94;55.71;102024.97;6158579;23;20018;-80
2023/07/18 08:20:39;;;;;;;6.35;2.00;;;;;;;23.05;54.74;102023.50;6158064;23;20018;-81
2023/07/18 08:23:05;;;;;;;6.03;1.90;;;;;;;22.95;53.72;102021.03;6159022;23;20049;-80
2023/07/18 08:25:32;;;;;;;3.67;1.63;;;;;;;23.15;54.42;102028.16;6157882;23;20034;-82
2023/07/18 08:27:59;;;;;;;6.28;1.65;;;;;;;23.37;53.09;102027.38;6146679;23;20018;-82
2023/07/18 08:30:26;;;;;;;4.07;1.80;;;;;;;23.41;52.42;102029.81;6158104;23;20014;-82
2023/07/18 08:32:52;;;;;;;3.88;1.70;;;;;;;23.55;52.89;102026.84;6158555;23;20125;-82
2023/07/18 08:35:19;;;;;;;4.65;1.85;;;;;;;23.60;54.09;102028.06;6157913;23;20418;-81
2023/07/18 08:37:46;;;;;;;6.75;2.30;;;;;;;23.53;53.81;102029.34;6158313;23;20029;-82
2023/07/18 08:40:13;;;;;;;4.13;2.10;;;;;;;23.44;54.42;102026.84;6158009;23;20021;-82
2023/07/18 08:42:40;;;;;;;5.55;2.00;;;;;;;23.52;53.41;102027.81;6157466;23;20014;-81
2023/07/18 08:45:08;;;;;;;8.90;1.92;;;;;;;23.83;54.19;102024.00;6158473;23;20097;-82
2023/07/18 08:47:37;;;;;;;6.05;1.77;;;;;;;23.95;52.44;102022.00;6106629;23;20044;-82
2023/07/18 08:50:05;;;;;;;5.88;2.33;;;;;;;24.23;52.75;102027.25;6158548;23;20065;-82
2023/07/18 08:52:31;;;;;;;6.05;2.50;;;;;;;24.39;50.70;102017.53;6157737;23;20111;-80
2023/07/18 08:54:58;;;;;;;9.55;2.22;;;;;;;24.47;53.25;102015.72;6158429;23;20018;-81
2023/07/18 08:57:24;;;;;;;6.10;2.10;;;;;;;24.60;50.43;102024.03;6158478;23;20441;-81
2023/07/18 08:59:52;;;;;;;2.47;1.70;;;;;;;24.27;51.50;102012.16;6133386;23;20028;-81
2023/07/18 09:02:19;;;;;;;3.67;2.05;;;;;;;24.33;51.03;102014.84;6159483;23;20021;-81
2023/07/18 09:04:46;;;;;;;6.20;2.00;;;;;;;24.38;51.76;102007.91;6159764;23;20014;-81
2023/07/18 09:07:14;;;;;;;3.42;2.00;;;;;;;24.55;50.88;102003.06;6134182;23;20385;-81
2023/07/18 09:09:47;;;;;;;6.40;1.90;;;;;;;24.64;51.46;102012.88;6133252;23;20018;-81
2023/07/18 09:12:14;;;;;;;4.57;2.13;;;;;;;24.27;50.71;102003.28;6159709;23;20018;-81
2023/07/18 09:14:41;;;;;;;7.72;1.90;;;;;;;24.29;50.84;102008.94;6159456;23;20033;-81
2023/07/18 09:17:08;;;;;;;5.13;2.03;;;;;;;24.43;50.82;101999.69;6133610;23;20078;-81
2023/07/18 09:19:41;;;;;;;7.40;2.10;;;;;;;24.88;50.54;101996.56;6108168;23;20014;-81
2023/07/18 09:22:09;;;;;;;8.20;2.53;;;;;;;25.29;50.56;102001.13;6160009;23;20175;-82
2023/07/18 09:24:37;;;;;;;4.30;2.33;;;;;;;25.51;50.00;102001.63;6159002;23;20483;-81
2023/07/18 09:27:08;;;;;;;5.68;2.10;;;;;;;25.44;49.26;101998.72;6162276;23;20368;-81
2023/07/18 09:29:35;;;;;;;4.55;2.13;;;;;;;25.25;48.39;101993.97;6188661;23;20024;-81
2023/07/18 09:32:03;;;;;;;4.03;2.00;;;;;;;25.11;48.86;101997.13;6189820;23;20440;-80
2023/07/18 09:34:30;;;;;;;5.15;1.90;;;;;;;25.10;48.00;102001.84;6188982;23;20462;-82
2023/07/18 09:36:59;;;;;;;3.92;2.28;;;;;;;25.03;48.25;101996.94;6189680;23;20416;-81
2023/07/18 09:39:27;;;;;;;8.15;2.50;;;;;;;25.30;48.49;101995.16;6188709;23;20613;-80
2023/07/18 09:41:55;;;;;;;5.75;2.30;;;;;;;25.49;48.56;101993.22;6188982;23;20013;-81
2023/07/18 09:44:24;;;;;;;6.03;2.30;;;;;;;25.56;48.75;101995.38;6188512;23;20017;-80
2023/07/18 09:46:58;;;;;;;5.53;2.40;;;;;;;25.56;47.34;101987.19;6189620;23;20028;-80
2023/07/18 09:49:25;;;;;;;8.23;2.20;;;;;;;25.68;46.92;101982.34;6189002;23;20406;-80
2023/07/18 09:52:05;;;;;;;3.67;2.00;;;;;;;26.18;48.00;101983.63;6189592;23;20443;-80
2023/07/18 09:54:33;;;;;;;10.00;2.10;;;;;;;25.72;48.55;101990.22;6162010;23;20397;-80
2023/07/18 09:57:03;;;;;;;2.50;1.67;;;;;;;25.29;47.74;101992.94;6189196;23;20029;-80
2023/07/18 09:59:30;;;;;;;4.07;1.98;;;;;;;25.34;48.19;101981.25;6188865;23;20049;-86
2023/07/18 10:01:57;;;;;;;8.15;2.53;;;;;;;25.40;49.22;101987.38;6188016;23;20395;-83
2023/07/18 10:04:24;;;;;;;4.85;2.17;;;;;;;25.27;48.45;101988.75;6188932;23;20424;-75
2023/07/18 10:06:55;;;;;;;3.28;1.85;;;;;;;24.97;47.70;101984.63;6188899;23;20032;-75
2023/07/18 10:09:23;;;;;;;3.40;1.63;;;;;;;25.46;49.26;101974.44;6161618;23;20440;-77
2023/07/18 10:11:58;;;;;;;5.72;1.95;;;;;;;26.15;48.03;101976.47;6163037;23;20085;-77
2023/07/18 10:14:48;;;;;;;4.20;1.92;;;;;;;26.18;46.23;101964.50;6188472;23;20467;-77
2023/07/18 10:17:29;;;;;;;5.13;1.80;;;;;;;26.20;45.57;101975.66;6189149;23;20476;-74
2023/07/18 10:19:56;;;;;;;4.05;1.58;;;;;;;26.55;44.24;101969.88;6189110;23;20021;-76
2023/07/18 10:22:29;;;;;;;6.03;1.60;;;;;;;26.53;43.97;101966.19;6188262;23;20470;-77
2023/07/18 10:25:08;;;;;;;3.50;1.80;;;;;;;26.69;45.41;101957.00;6188634;23;20021;-75
2023/07/18 10:27:39;;;;;;;7.45;2.63;;;;;;;26.85;45.29;101960.66;6156777;23;20018;-76
2023/07/18 10:30:09;;;;;;;8.80;3.03;;;;;;;26.63;44.13;101955.59;6159205;23;20022;-76
2023/07/18 10:32:37;;;;;;;8.35;1.88;;;;;;;26.54;45.63;101952.03;6158715;23;20314;-75
2023/07/18 10:35:07;;;;;;;4.88;1.90;;;;;;;26.34;44.40;101952.63;6159574;23;20018;-75
2023/07/18 10:37:36;;;;;;;3.05;1.80;;;;;;;25.69;43.92;101940.19;6159147;23;20432;-76
2023/07/18 10:40:05;;;;;;;4.68;1.77;;;;;;;25.30;44.03;101945.38;6159029;23;20040;-76
2023/07/18 10:42:34;;;;;;;4.07;1.70;;;;;;;25.18;44.73;101940.09;6158819;23;20472;-76
2023/07/18 10:45:04;;;;;;;4.90;1.73;;;;;;;25.42;45.39;101933.09;6159319;23;20021;-74
2023/07/18 10:47:34;;;;;;;3.15;1.45;;;;;;;26.13;43.81;101922.41;6158549;23;20029;-74
2023/07/18 10:50:03;;;;;;;5.05;1.33;;;;;;;26.79;42.33;101922.50;6157702;23;20463;-74
2023/07/18 10:52:30;;;;;;;1.73;1.15;;;;;;;27.06;39.21;101920.53;6158066;23;20017;-74
2023/07/18 10:54:58;;;;;;;1.73;1.10;;;;;;;27.42;40.79;101922.78;6158550;23;20014;-73
2023/07/18 10:57:33;;;;;;;2.38;1.42;;;;;;;27.61;38.83;101911.69;6157518;23;20027;-74
2023/07/18 11:00:01;;;;;;;2.63;1.55;;;;;;;27.78;39.72;101912.06;6159067;23;20364;-74
2023/07/18 11:02:43;;;;;;;3.08;1.67;;;;;;;27.77;39.18;101916.81;6158436;23;20038;-74
2023/07/18 11:05:13;;;;;;;3.13;1.70;;;;;;;27.82;39.95;101915.94;6159244;23;20018;-74
2023/07/18 11:07:45;;;;;;;4.80;1.80;;;;;;;27.72;40.28;101917.66;6158250;23;20456;-74
2023/07/18 11:10:13;;;;;;;4.45;1.88;;;;;;;27.79;39.54;101914.25;6159436;23;20085;-75
2023/07/18 11:12:41;;;;;;;8.82;2.20;;;;;;;27.40;41.40;101909.66;6159354;23;20817;-74
2023/07/18 11:15:12;;;;;;;6.95;2.10;;;;;;;27.17;40.92;101903.19;6159130;23;20018;-74
2023/07/18 11:17:38;;;;;;;3.75;1.88;;;;;;;26.46;42.17;101904.75;6158512;23;20053;-73
2023/07/18 11:20:06;;;;;;;4.70;1.83;;;;;;;26.02;42.42;101910.94;6156402;23;20736;-75
2023/07/18 11:22:33;;;;;;;1.67;1.58;;;;;;;25.80;44.10;101918.22;6157979;23;20010;-74
2023/07/18 11:25:00;;;;;;;7.07;2.20;;;;;;;25.65;43.66;101917.91;6159096;23;20060;-74
2023/07/18 11:27:29;;;;;;;4.75;2.42;;;;;;;25.42;43.70;101917.47;6165610;23;20021;-73